Bayandelger, Mongolia
Current Conditions -  °F | °C
As of 2:00 AM on Friday 31 Oct 2014 (Local Time) from ZMUB Reporting Station
Broken Clouds Broken Clouds  
Wind Chill: 22°   Ceiling: 10000
Heat Index: 30°   Visibility: 6mi
Dew Point: 23°   Wind: 9mph
Humidity: 75%   Direction: 150°SSE
Pressure: 30.06"   Gusts: NA
Location:  45.73°N, 112.37°E
Report Text: ZMUB 301800Z 15004MPS 9999 BKN100 M01/M05 Q1018 NOSIG RMK QFE655.9 71 NT
Loading
Personal Weather Stations






























Interactive Weather Map
Tropical Storm Tracking
New forecast layout! Learn more

10-Day Weather Forecast

Advertisements
Track Severe Weather on mobile